Laredo International Airport
KLRD : now visible

Airfield :











YOU CAN JOIN US ON...

 
LOGIN :

Register | Disclaimer

   EN    FR    IT 

 









Legend :    VFR   Marginal VFR   IFR   Intensive IFR   Very Intensive IFR
Visi :
Ceiling :
>= 8 km
>= 3000ft
5 to 8 km
1000 to 3000 ft
1500m to 5 km
500 to 1000 ft
800 to 1500m
200 to 500 ft
< 800m
< 200 ft
Symbols :   Thunderstorms  Fog  Heavy snow  Heavy precipitations  Wind > 20 kt







- Airport Elevation : 508 ft
- IATA code : LRD


KLRD - Laredo International

CURRENT METAR :
  • 171222Z 13009KT 10SM SCT022 28/23 A2996 RMK AO2

EXPIRED METARs :
  • 171156Z 13011KT 10SM OVC022 28/23 A2995 RMK AO2 SLP139 T02780233 10289 20272 53003
  • 171056Z 13009KT 10SM SCT022 BKN028 28/24 A2994 RMK AO2 SLP134 T02780239
  • 170956Z AUTO 14011KT 10SM SCT025 BKN032 28/23 A2994 RMK AO2 SLP134 T02780233

TAF KLRD
Valid from the 17 at 12:00 until the 18 at 12:00 UTC


171132Z 1712/1812 13008KT P6SM SCT025
TEMPO 1712/1714 BKN025
FM171600 15014G18KT P6SM SCT035 SCT250
FM180300 12018G25KT P6SM SCT250
FM180600 15010KT P6SM SCT250
KZHU FIR / North America



MET'MAP, your aeronautical weather chart ! - Copyright ORBIFLY December 2007 - Disclaimer

ORBIFLY MET'MAP TEAM :

Programming & Development : Alexandra Zaïnal
Concept & Development : Baudouin d'Aumeries
Co-Development & Prog : Marc-Olivier Méhu
Technical & hardware support : Manuel Goepfert

Contact : metmap@orbifly.com




SOURCES & CREDITS :

   NOAA       Earth
Advisory